Time;durP1;ratioP1;P1;durP2;ratioP2;P2;SDS_P1;SDS_P2;PMS_P1;PMS_P2;Temp;Humidity;BMP_temperature;BMP_pressure;BME280_temperature;BME280_humidity;BME280_pressure;Samples;Min_cycle;Max_cycle;Signal;HPM_P1;HPM_P2
2023/12/04 00:02:07;;;;;;;14.00;7.32;;;;;;;0.02;94.46;100868.16;6375598;27;20443;-77
2023/12/04 00:05:08;;;;;;;18.52;8.82;;;;;;;-0.05;94.32;100867.34;6373712;27;20058;-78
2023/12/04 00:08:10;;;;;;;15.25;7.65;;;;;;;-0.09;93.24;100877.63;6381098;27;20486;-77
2023/12/04 00:11:11;;;;;;;13.80;7.40;;;;;;;-0.12;94.17;100875.94;6387339;27;20495;-77
2023/12/04 00:14:14;;;;;;;12.40;6.57;;;;;;;-0.16;94.33;100875.97;6373357;27;20075;-77
2023/12/04 00:17:15;;;;;;;10.50;6.63;;;;;;;0.01;93.80;100873.34;6379763;27;20043;-74
2023/12/04 00:20:16;;;;;;;13.40;7.05;;;;;;;-0.10;92.98;100863.13;6372283;27;20467;-74
2023/12/04 00:23:20;;;;;;;21.85;10.73;;;;;;;-0.11;93.10;100879.34;6362919;27;20078;-74
2023/12/04 00:26:21;;;;;;;13.13;6.65;;;;;;;-0.07;93.54;100886.19;6372337;27;20043;-74
2023/12/04 00:29:24;;;;;;;14.30;5.80;;;;;;;-0.15;92.93;100885.34;6370673;27;20138;-74
2023/12/04 00:32:25;;;;;;;8.50;5.68;;;;;;;-0.17;93.65;100885.34;6380102;27;20402;-77
2023/12/04 00:35:26;;;;;;;8.32;5.32;;;;;;;-0.29;93.73;100880.28;6371102;27;20050;-77
2023/12/04 00:38:27;;;;;;;14.20;6.15;;;;;;;-0.46;93.71;100886.28;6372309;27;20053;-77
2023/12/04 00:41:28;;;;;;;11.68;6.20;;;;;;;-0.39;94.05;100884.59;6372976;27;20050;-74
2023/12/04 00:44:29;;;;;;;15.05;6.30;;;;;;;-0.47;94.49;100882.03;6387038;27;20047;-74
2023/12/04 00:47:30;;;;;;;8.73;5.30;;;;;;;-0.32;94.20;100886.28;6395057;27;20607;-74
2023/12/04 00:50:31;;;;;;;12.18;5.95;;;;;;;-0.36;93.21;100882.00;6373934;27;20043;-74
2023/12/04 00:53:31;;;;;;;10.00;5.63;;;;;;;-0.29;93.01;100880.28;6379795;27;20065;-74
2023/12/04 00:56:35;;;;;;;13.05;5.93;;;;;;;-0.51;94.07;100864.97;6374267;27;20081;-74
2023/12/04 00:59:36;;;;;;;11.70;7.10;;;;;;;-0.54;92.66;100859.81;6372926;27;20057;-73
2023/12/04 01:02:37;;;;;;;12.68;6.40;;;;;;;-0.37;92.97;100869.19;6371875;27;20051;-77
2023/12/04 01:05:41;;;;;;;13.02;6.32;;;;;;;-0.38;92.31;100868.34;6362395;27;20495;-77
2023/12/04 01:08:44;;;;;;;9.80;5.88;;;;;;;-0.34;93.11;100879.44;6376821;27;20254;-77
2023/12/04 01:11:45;;;;;;;12.07;6.70;;;;;;;-0.26;92.94;100880.28;6385894;27;20445;-77
2023/12/04 01:14:46;;;;;;;20.77;7.10;;;;;;;-0.23;91.79;100876.00;6368374;27;20047;-74
2023/12/04 01:17:47;;;;;;;11.30;6.07;;;;;;;-0.24;91.34;100887.09;6371692;27;20100;-74
2023/12/04 01:20:50;;;;;;;10.70;6.68;;;;;;;-0.33;90.93;100881.13;6370743;27;20051;-75
2023/12/04 01:23:52;;;;;;;10.25;6.72;;;;;;;-0.42;89.94;100882.03;6387100;27;20062;-75
2023/12/04 01:26:55;;;;;;;9.40;5.78;;;;;;;-0.42;91.06;100882.88;6378556;27;20434;-75
2023/12/04 01:30:01;;;;;;;9.88;5.57;;;;;;;-0.48;89.84;100882.88;6383056;27;20050;-74
2023/12/04 01:33:04;;;;;;;10.57;5.28;;;;;;;-0.55;89.64;100881.22;6391290;27;20066;-74
2023/12/04 01:36:05;;;;;;;11.27;5.80;;;;;;;-0.48;89.72;100885.44;6381577;27;20097;-77
2023/12/04 01:39:06;;;;;;;10.80;5.90;;;;;;;-0.58;89.70;100876.06;6380479;27;20046;-77
2023/12/04 01:42:10;;;;;;;7.05;4.25;;;;;;;-0.64;89.43;100874.41;6396847;27;20047;-77
2023/12/04 01:45:11;;;;;;;11.27;5.03;;;;;;;-0.66;88.96;100877.78;6371239;27;20483;-77
2023/12/04 01:48:14;;;;;;;7.70;4.90;;;;;;;-0.69;88.36;100877.81;6369541;27;20050;-77
2023/12/04 01:51:17;;;;;;;6.68;3.90;;;;;;;-0.76;87.76;100882.09;6368525;27;20494;-77
2023/12/04 01:54:21;;;;;;;7.05;4.20;;;;;;;-0.71;87.10;100884.66;6358724;27;20054;-77
2023/12/04 01:57:25;;;;;;;6.68;4.35;;;;;;;-0.80;87.12;100885.53;6397988;27;20564;-77
2023/12/04 02:00:26;;;;;;;7.32;4.38;;;;;;;-1.04;88.34;100900.03;6369811;27;20081;-74
2023/12/04 02:03:28;;;;;;;12.68;5.80;;;;;;;-1.12;88.31;100894.06;6370805;27;20057;-77
2023/12/04 02:06:28;;;;;;;9.90;4.93;;;;;;;-0.99;88.69;100900.03;6384522;27;20078;-77
2023/12/04 02:09:30;;;;;;;9.85;4.70;;;;;;;-0.99;89.00;100892.34;6371578;27;20106;-77
2023/12/04 02:12:31;;;;;;;10.43;4.97;;;;;;;-1.13;88.92;100887.25;6388610;27;20047;-77
2023/12/04 02:15:33;;;;;;;11.00;4.75;;;;;;;-1.13;89.03;100878.69;6396689;27;20082;-74
2023/12/04 02:18:34;;;;;;;7.18;5.05;;;;;;;-1.11;87.90;100880.41;6384796;27;20126;-77
2023/12/04 02:21:35;;;;;;;12.75;5.65;;;;;;;-1.16;88.96;100884.66;6380118;27;20047;-77
2023/12/04 02:24:37;;;;;;;11.05;5.43;;;;;;;-1.17;87.74;100879.53;6371334;27;20053;-76
2023/12/04 02:27:46;;;;;;;10.70;5.18;;;;;;;-1.13;88.18;100873.56;6376316;27;20043;-76
2023/12/04 02:30:50;;;;;;;10.70;5.40;;;;;;;-1.18;88.04;100878.69;6390776;27;20075;-77
2023/12/04 02:33:59;;;;;;;8.60;5.25;;;;;;;-1.22;87.37;100882.94;6399115;27;20054;-77
2023/12/04 02:37:02;;;;;;;8.68;4.65;;;;;;;-1.25;88.17;100897.47;6378496;27;20405;-77
2023/12/04 02:40:06;;;;;;;5.40;3.75;;;;;;;-1.27;88.43;100896.63;6402080;27;20057;-76
2023/12/04 02:43:07;;;;;;;9.52;4.50;;;;;;;-1.31;88.23;100889.78;6400718;27;20050;-77
2023/12/04 02:46:10;;;;;;;8.63;5.03;;;;;;;-1.27;88.11;100897.47;6381014;27;20048;-74
2023/12/04 02:49:11;;;;;;;7.68;4.93;;;;;;;-1.35;88.22;100894.03;6383488;27;20047;-74
2023/12/04 02:52:12;;;;;;;7.40;4.22;;;;;;;-1.34;87.87;100893.22;6396812;27;20054;-77
2023/12/04 02:55:15;;;;;;;8.18;3.53;;;;;;;-1.51;87.95;100890.59;6377049;27;20110;-77
2023/12/04 02:58:16;;;;;;;8.18;4.72;;;;;;;-1.40;88.23;100892.31;6384456;27;20132;-77
2023/12/04 03:01:19;;;;;;;14.70;6.03;;;;;;;-1.47;88.01;100894.88;6376353;27;20105;-77
2023/12/04 03:04:20;;;;;;;23.63;10.05;;;;;;;-1.58;87.99;100899.13;6396016;27;20047;-75
2023/12/04 03:07:21;;;;;;;23.73;9.80;;;;;;;-1.58;88.25;100896.56;6380790;27;20098;-76
2023/12/04 03:10:22;;;;;;;17.17;7.05;;;;;;;-1.55;88.48;100900.84;6385476;27;20088;-76
2023/12/04 03:13:25;;;;;;;10.13;5.63;;;;;;;-1.65;88.68;100894.81;6375181;27;20051;-77
2023/12/04 03:16:31;;;;;;;10.82;5.35;;;;;;;-1.61;89.05;100909.34;6387264;27;20125;-77
2023/12/04 03:19:34;;;;;;;9.35;5.45;;;;;;;-1.57;88.26;100908.50;6379271;27;20039;-77
2023/12/04 03:22:37;;;;;;;6.85;4.10;;;;;;;-1.74;89.62;100908.47;6376287;27;20072;-76
2023/12/04 03:25:37;;;;;;;6.47;4.15;;;;;;;-1.74;89.50;100908.47;6377033;27;20130;-76
2023/12/04 03:28:40;;;;;;;7.55;4.65;;;;;;;-1.80;89.65;100925.50;6374259;27;20047;-76
2023/12/04 03:31:40;;;;;;;7.88;4.65;;;;;;;-1.80;90.01;100915.28;6371144;27;20126;-76
2023/12/04 03:34:41;;;;;;;9.25;5.03;;;;;;;-1.87;89.55;100927.19;6383978;27;20047;-76
2023/12/04 03:37:42;;;;;;;14.32;6.25;;;;;;;-1.75;89.79;100924.69;6400291;27;20053;-74
2023/12/04 03:40:43;;;;;;;17.38;6.28;;;;;;;-1.66;89.46;100921.28;6380377;27;20050;-74
2023/12/04 03:43:44;;;;;;;14.40;5.82;;;;;;;-1.71;88.63;100921.28;6374401;27;20051;-74
2023/12/04 03:46:48;;;;;;;7.85;4.65;;;;;;;-1.75;88.16;100927.25;6393766;27;20049;-74
2023/12/04 03:49:49;;;;;;;9.00;4.55;;;;;;;-1.71;87.92;100922.97;6401402;27;20051;-77
2023/12/04 03:52:52;;;;;;;11.05;5.18;;;;;;;-1.76;88.43;100928.06;6399832;27;20089;-76
2023/12/04 03:55:53;;;;;;;6.57;4.22;;;;;;;-1.77;88.10;100933.16;6400061;27;20126;-76
2023/12/04 03:58:54;;;;;;;8.65;5.00;;;;;;;-1.88;88.00;100926.31;6393166;27;20043;-75
2023/12/04 04:01:55;;;;;;;9.25;5.05;;;;;;;-1.91;87.93;100920.34;6380843;27;20067;-75
2023/12/04 04:04:56;;;;;;;9.00;4.97;;;;;;;-2.01;88.73;100922.00;6385786;27;20047;-74
2023/12/04 04:07:57;;;;;;;7.45;5.07;;;;;;;-1.93;88.63;100919.50;6384260;27;20043;-74
2023/12/04 04:11:00;;;;;;;10.68;5.40;;;;;;;-1.92;88.23;100908.41;6374838;27;20043;-74
2023/12/04 04:14:01;;;;;;;8.63;4.60;;;;;;;-1.90;87.66;100925.44;6370299;27;20089;-74
2023/12/04 04:17:03;;;;;;;7.70;4.63;;;;;;;-2.00;88.84;100920.31;6373059;27;20051;-74
2023/12/04 04:20:05;;;;;;;8.07;4.60;;;;;;;-1.90;88.94;100919.50;6380084;27;20503;-77
2023/12/04 04:23:06;;;;;;;11.02;5.75;;;;;;;-1.98;89.08;100923.72;6373583;27;20508;-76
2023/12/04 04:26:07;;;;;;;9.10;5.57;;;;;;;-1.97;89.06;100922.88;6378455;27;20043;-74
2023/12/04 04:29:08;;;;;;;9.70;5.13;;;;;;;-1.99;88.96;100927.13;6379287;27;20042;-75
2023/12/04 04:32:09;;;;;;;9.85;4.85;;;;;;;-2.07;88.73;100935.63;6378701;27;20058;-75
2023/12/04 04:35:10;;;;;;;5.90;3.60;;;;;;;-2.01;89.22;100941.63;6394037;27;20044;-75
2023/12/04 04:38:11;;;;;;;7.30;4.68;;;;;;;-1.96;88.94;100939.94;6386706;27;20483;-75
2023/12/04 04:41:15;;;;;;;7.40;4.28;;;;;;;-2.09;90.18;100944.13;6374258;27;20043;-74
2023/12/04 04:44:18;;;;;;;9.30;5.43;;;;;;;-2.07;90.18;100943.28;6374085;27;20517;-75
2023/12/04 04:47:19;;;;;;;10.25;5.20;;;;;;;-2.16;90.78;100947.50;6372615;27;20522;-74
2023/12/04 04:50:20;;;;;;;14.23;4.60;;;;;;;-2.27;91.00;100943.16;6372850;27;20089;-75
2023/12/04 04:53:21;;;;;;;7.07;4.40;;;;;;;-2.24;91.12;100947.47;6382330;27;20090;-75
2023/12/04 04:56:22;;;;;;;8.13;5.75;;;;;;;-2.41;91.56;100952.44;6381736;27;20104;-75
2023/12/04 04:59:23;;;;;;;10.88;6.40;;;;;;;-2.19;91.81;100962.84;6381163;27;20123;-76
2023/12/04 05:02:26;;;;;;;11.85;6.13;;;;;;;-2.50;93.13;100967.75;6380655;27;20047;-74
2023/12/04 05:05:27;;;;;;;9.75;6.15;;;;;;;-2.31;91.64;100961.88;6373175;27;20103;-75
2023/12/04 05:08:28;;;;;;;9.48;5.65;;;;;;;-2.24;91.90;100973.03;6375267;27;20043;-75
2023/12/04 05:11:31;;;;;;;7.28;4.75;;;;;;;-2.42;92.07;100973.75;6373099;27;20053;-75
2023/12/04 05:14:32;;;;;;;10.18;5.55;;;;;;;-2.39;91.79;100975.47;6371004;27;20049;-74
2023/12/04 05:17:33;;;;;;;8.93;5.53;;;;;;;-2.30;92.49;100973.84;6370590;27;20043;-74
2023/12/04 05:20:34;;;;;;;7.90;5.55;;;;;;;-2.25;91.77;100968.75;6377138;27;20508;-74
2023/12/04 05:23:35;;;;;;;14.23;5.15;;;;;;;-2.32;91.82;100978.09;6371548;27;20057;-75
2023/12/04 05:26:35;;;;;;;7.20;4.75;;;;;;;-2.35;91.79;100978.06;6372102;27;20051;-74
2023/12/04 05:29:38;;;;;;;9.88;5.90;;;;;;;-2.43;92.16;100972.03;6374173;27;20130;-76
2023/12/04 05:32:42;;;;;;;9.02;5.22;;;;;;;-2.40;92.13;100968.66;6367704;27;20093;-76
2023/12/04 05:35:43;;;;;;;14.48;5.22;;;;;;;-2.37;91.83;100976.34;6379190;27;20054;-74
2023/12/04 05:38:44;;;;;;;9.50;5.05;;;;;;;-2.31;91.89;100974.69;6375396;27;20051;-76
2023/12/04 05:41:44;;;;;;;10.38;5.20;;;;;;;-2.46;92.34;100977.16;6395407;27;20046;-76
2023/12/04 05:44:47;;;;;;;11.23;6.32;;;;;;;-2.48;92.25;100982.22;6373519;27;20048;-76
2023/12/04 05:47:48;;;;;;;6.95;4.95;;;;;;;-2.46;92.75;100982.25;6366112;27;20039;-76
2023/12/04 05:50:49;;;;;;;8.80;4.18;;;;;;;-2.47;91.65;100985.63;6371893;27;20425;-76
2023/12/04 05:53:50;;;;;;;8.68;4.68;;;;;;;-2.42;92.43;100988.25;6368436;27;20085;-74
2023/12/04 05:56:50;;;;;;;14.57;6.18;;;;;;;-2.28;91.71;100978.97;6370601;27;20066;-74
2023/12/04 05:59:51;;;;;;;9.10;4.95;;;;;;;-2.41;90.72;100980.56;6367001;27;20047;-74
2023/12/04 06:02:53;;;;;;;7.75;5.07;;;;;;;-2.40;90.44;100981.44;6370403;27;20456;-76
2023/12/04 06:05:56;;;;;;;9.33;4.63;;;;;;;-2.44;90.60;100981.41;6364936;27;20055;-76
2023/12/04 06:08:57;;;;;;;10.52;5.85;;;;;;;-2.45;90.82;100982.28;6363445;27;20042;-76
2023/12/04 06:12:04;;;;;;;8.50;5.05;;;;;;;-2.52;90.77;100972.84;6385698;27;20093;-76
2023/12/04 06:15:05;;;;;;;4.60;3.25;;;;;;;-2.68;91.29;100974.44;6367252;27;20061;-76
2023/12/04 06:18:06;;;;;;;5.50;4.20;;;;;;;-2.52;91.32;100983.06;6369986;27;20079;-76
2023/12/04 06:21:07;;;;;;;10.65;6.93;;;;;;;-2.48;91.07;100979.69;6379583;27;20381;-74
2023/12/04 06:24:09;;;;;;;8.25;5.38;;;;;;;-2.53;91.38;100980.47;6367332;27;20092;-74
2023/12/04 06:27:12;;;;;;;11.00;5.03;;;;;;;-2.65;91.21;100988.94;6371072;27;20043;-75
2023/12/04 06:30:13;;;;;;;7.47;4.38;;;;;;;-2.54;91.24;100989.00;6373065;27;20061;-74
2023/12/04 06:33:15;;;;;;;6.25;4.10;;;;;;;-2.77;91.61;100991.38;6375667;27;20047;-74
2023/12/04 06:36:17;;;;;;;7.43;4.30;;;;;;;-2.81;91.91;100995.59;6371478;27;20046;-74
2023/12/04 06:39:18;;;;;;;;;;;;;;;-2.63;92.25;101005.13;6376138;27;20051;-74
2023/12/04 06:42:19;;;;;;;5.88;3.50;;;;;;;-2.62;92.39;101006.81;6372167;27;19926;-74
2023/12/04 06:45:21;;;;;;;7.63;4.05;;;;;;;-2.49;92.09;101008.66;6367776;27;20425;-75
2023/12/04 06:48:22;;;;;;;9.88;5.88;;;;;;;-2.46;92.00;101023.16;6370146;27;20049;-74
2023/12/04 06:51:23;;;;;;;12.93;5.82;;;;;;;-2.52;90.66;101020.53;6362589;27;20076;-76
2023/12/04 06:54:24;;;;;;;8.20;5.65;;;;;;;-2.45;91.36;101012.94;6367747;27;20055;-76
2023/12/04 06:57:25;;;;;;;9.00;5.20;;;;;;;-2.37;91.03;101018.09;6360340;27;20039;-76
2023/12/04 07:00:30;;;;;;;7.93;4.40;;;;;;;-2.41;90.10;101016.34;6365606;27;20495;-76
2023/12/04 07:03:31;;;;;;;6.13;3.53;;;;;;;-2.46;90.59;101016.31;6356638;28;20055;-74
2023/12/04 07:06:32;;;;;;;13.90;5.22;;;;;;;-2.21;90.69;101020.78;6357057;28;20054;-77
2023/12/04 07:09:34;;;;;;;6.50;4.72;;;;;;;-2.10;89.09;101011.47;6359052;27;20092;-74
2023/12/04 07:12:36;;;;;;;6.38;4.15;;;;;;;-2.17;90.05;101009.72;6362307;27;20065;-74
2023/12/04 07:15:40;;;;;;;9.52;5.68;;;;;;;-2.19;89.53;101007.16;6360936;27;20058;-77
2023/12/04 07:18:40;;;;;;;6.55;4.65;;;;;;;-2.11;88.91;101013.16;6354779;27;20051;-77
2023/12/04 07:21:42;;;;;;;9.05;4.93;;;;;;;-1.86;89.29;101016.72;6368638;27;20104;-77
2023/12/04 07:24:43;;;;;;;8.57;5.70;;;;;;;-1.99;89.24;101014.94;6362504;27;20104;-74
2023/12/04 07:27:46;;;;;;;9.93;5.93;;;;;;;-1.99;88.93;101014.94;6370772;27;20047;-77
2023/12/04 07:30:47;;;;;;;4.53;3.47;;;;;;;-2.04;88.76;101014.06;6367744;27;20082;-77
2023/12/04 07:33:48;;;;;;;16.05;7.65;;;;;;;-1.87;88.48;101012.47;6365932;27;20047;-77
2023/12/04 07:36:49;;;;;;;12.27;7.03;;;;;;;-1.86;87.79;101015.88;6365165;27;20526;-77
2023/12/04 07:39:50;;;;;;;15.32;7.88;;;;;;;-1.66;87.88;101032.19;6361362;27;20077;-74
2023/12/04 07:42:51;;;;;;;8.35;5.50;;;;;;;-1.64;87.18;101025.34;6364170;27;20043;-77
2023/12/04 07:45:51;;;;;;;8.52;4.95;;;;;;;-1.59;86.86;101019.41;6363701;27;20059;-77
2023/12/04 07:48:54;;;;;;;7.90;4.57;;;;;;;-1.41;86.54;101019.47;6358543;27;20482;-77
2023/12/04 07:51:55;;;;;;;12.45;6.13;;;;;;;-1.23;85.96;101027.22;6354782;27;20510;-77
2023/12/04 07:54:56;;;;;;;10.65;6.03;;;;;;;-1.15;85.70;101017.00;6360451;27;20055;-74
2023/12/04 07:57:57;;;;;;;12.55;5.70;;;;;;;-1.40;84.96;101018.66;6358907;27;20574;-77
2023/12/04 08:00:59;;;;;;;6.88;4.40;;;;;;;-1.16;84.88;101032.38;6357625;27;20048;-74
2023/12/04 08:04:02;;;;;;;9.07;5.35;;;;;;;-1.34;85.48;101016.09;6359394;27;20075;-74
2023/12/04 08:07:03;;;;;;;3.58;2.85;;;;;;;-1.21;84.91;101017.00;6373712;27;20051;-74
2023/12/04 08:10:06;;;;;;;5.72;3.90;;;;;;;-1.04;85.12;101002.50;6375152;27;20045;-77
2023/12/04 08:13:07;;;;;;;4.85;3.38;;;;;;;-1.25;84.85;101007.59;6373827;27;20043;-77
2023/12/04 08:16:19;;;;;;;5.65;3.30;;;;;;;-1.07;84.71;101009.31;6373643;27;20083;-74
2023/12/04 08:19:20;;;;;;;9.73;5.30;;;;;;;-1.02;85.43;101018.72;6374761;27;20050;-77
2023/12/04 08:22:21;;;;;;;6.60;4.13;;;;;;;-0.93;84.88;101023.00;6373532;27;20112;-77
2023/12/04 08:25:22;;;;;;;7.60;4.38;;;;;;;-0.98;84.20;101029.84;6376314;27;20043;-76
2023/12/04 08:28:23;;;;;;;4.20;2.95;;;;;;;-0.75;84.02;101023.91;6377318;27;20638;-76
2023/12/04 08:31:24;;;;;;;7.65;5.20;;;;;;;-0.67;84.58;101038.44;6399177;27;20051;-76
2023/12/04 08:34:25;;;;;;;8.02;5.68;;;;;;;-0.37;83.53;101048.69;6392368;27;20043;-76
2023/12/04 08:37:26;;;;;;;11.07;5.47;;;;;;;-0.89;83.06;101052.06;6373097;27;20414;-76
2023/12/04 08:40:27;;;;;;;16.02;7.50;;;;;;;-0.57;82.81;101061.53;6377844;27;20055;-76
2023/12/04 08:43:28;;;;;;;8.85;5.50;;;;;;;-0.60;83.46;101062.34;6396748;27;20516;-76
2023/12/04 08:46:29;;;;;;;13.07;5.47;;;;;;;-0.84;83.80;101061.47;6369328;27;20093;-73
2023/12/04 08:49:30;;;;;;;7.47;4.13;;;;;;;-0.74;83.12;101069.16;6364691;27;20092;-73
2023/12/04 08:52:31;;;;;;;11.93;4.53;;;;;;;-0.72;82.81;101065.78;6374697;27;20129;-73
2023/12/04 08:55:32;;;;;;;5.55;3.83;;;;;;;-0.79;83.34;101083.69;6374462;27;20509;-73
2023/12/04 08:58:33;;;;;;;5.90;3.60;;;;;;;-0.56;83.83;101076.88;6359315;27;20088;-73
2023/12/04 09:01:33;;;;;;;12.32;6.13;;;;;;;-0.21;83.17;101071.78;6369770;27;20051;-73
2023/12/04 09:04:37;;;;;;;10.75;6.55;;;;;;;-0.17;81.97;101061.50;6372655;27;20062;-73
2023/12/04 09:07:38;;;;;;;13.88;6.85;;;;;;;-0.27;81.59;101058.09;6374415;27;20092;-76
2023/12/04 09:10:39;;;;;;;10.52;6.00;;;;;;;-0.04;80.82;101061.50;6370215;27;20051;-76
2023/12/04 09:13:40;;;;;;;9.50;5.60;;;;;;;-0.09;80.69;101059.78;6373579;27;20510;-77
2023/12/04 09:16:44;;;;;;;8.88;5.45;;;;;;;-0.11;80.01;101057.22;6371759;27;20039;-76
2023/12/04 09:19:47;;;;;;;9.55;5.63;;;;;;;-0.09;80.02;101050.38;6371083;27;20054;-76
2023/12/04 09:22:47;;;;;;;11.88;5.43;;;;;;;0.28;79.56;101054.59;6373570;27;20043;-77
2023/12/04 09:25:48;;;;;;;6.90;4.38;;;;;;;0.03;79.34;101043.53;6373141;27;20047;-76
2023/12/04 09:28:49;;;;;;;9.35;5.93;;;;;;;-0.10;79.24;101046.13;6371943;27;20043;-76
2023/12/04 09:31:53;;;;;;;10.20;6.05;;;;;;;0.56;79.60;101047.66;6372905;27;20054;-77
2023/12/04 09:34:53;;;;;;;15.20;7.13;;;;;;;0.29;78.88;101040.88;6372634;27;20463;-76
2023/12/04 09:37:54;;;;;;;11.55;6.03;;;;;;;0.05;79.20;101042.66;6372683;27;20433;-76
2023/12/04 09:40:59;;;;;;;7.47;4.70;;;;;;;-0.07;79.49;101040.97;6371441;27;20051;-76
2023/12/04 09:44:01;;;;;;;9.70;4.47;;;;;;;0.13;79.29;101033.25;6371618;27;20078;-76
2023/12/04 09:47:02;;;;;;;10.67;5.07;;;;;;;0.11;78.74;101017.00;6371287;27;20392;-76
2023/12/04 09:50:05;;;;;;;7.30;5.15;;;;;;;-0.11;78.83;101017.91;6370806;27;20051;-76
2023/12/04 09:53:10;;;;;;;8.88;4.90;;;;;;;0.18;78.33;101021.22;6371166;27;20062;-76
2023/12/04 09:56:12;;;;;;;9.35;4.78;;;;;;;0.45;77.63;101023.72;6371460;27;20050;-76
2023/12/04 09:59:13;;;;;;;6.40;3.85;;;;;;;0.10;77.57;101022.97;6371014;27;20126;-76
2023/12/04 10:02:14;;;;;;;12.45;5.93;;;;;;;0.16;77.16;101015.25;6372532;27;20130;-76
2023/12/04 10:05:15;;;;;;;12.07;5.05;;;;;;;0.10;77.42;101015.28;6371080;27;20055;-74
2023/12/04 10:08:18;;;;;;;6.43;4.32;;;;;;;-0.14;77.28;101016.19;6380358;27;20050;-76
2023/12/04 10:11:19;;;;;;;7.75;5.10;;;;;;;0.26;76.95;101013.53;6380795;27;20057;-76
2023/12/04 10:14:21;;;;;;;12.35;6.93;;;;;;;0.66;75.50;100995.41;6375650;27;20051;-76
2023/12/04 10:17:22;;;;;;;12.10;5.75;;;;;;;0.71;74.53;101008.22;6368564;27;20433;-76
2023/12/04 10:20:24;;;;;;;7.72;4.07;;;;;;;0.40;74.27;100998.06;6386937;27;20042;-76
2023/12/04 10:23:46;;;;;;;7.47;3.90;;;;;;;0.62;73.49;100998.84;6398236;27;20047;-76
2023/12/04 10:26:53;;;;;;;9.05;4.20;;;;;;;0.50;73.66;100997.19;6378473;27;20097;-75
2023/12/04 10:29:56;;;;;;;8.50;5.03;;;;;;;0.69;73.82;100987.66;6352325;28;20070;-75
2023/12/04 10:33:02;;;;;;;6.45;3.97;;;;;;;1.04;73.34;100999.44;6353864;28;20047;-76
2023/12/04 10:36:04;;;;;;;6.18;3.72;;;;;;;1.12;72.70;101000.25;6355346;28;20043;-76
2023/12/04 10:39:05;;;;;;;7.85;4.40;;;;;;;1.18;72.95;100991.63;6354082;28;20580;-76
2023/12/04 10:42:08;;;;;;;4.68;2.90;;;;;;;1.06;72.05;100981.44;6350112;27;20504;-76
2023/12/04 10:45:10;;;;;;;9.07;4.97;;;;;;;1.41;71.91;100987.16;6364435;27;20051;-76
2023/12/04 10:48:12;;;;;;;8.20;4.95;;;;;;;1.40;71.62;100976.88;6372551;27;20092;-73
2023/12/04 10:51:17;;;;;;;5.97;4.53;;;;;;;1.74;71.86;100974.00;6372718;27;20086;-76
2023/12/04 10:54:18;;;;;;;7.60;5.03;;;;;;;0.83;72.39;100976.47;6384391;27;20059;-74
2023/12/04 10:57:28;;;;;;;8.80;4.43;;;;;;;0.50;74.09;100981.75;6375251;27;20047;-74
2023/12/04 11:00:33;;;;;;;8.82;4.68;;;;;;;0.95;73.71;100979.81;6378310;27;20842;-76
2023/12/04 11:03:44;;;;;;;9.57;5.47;;;;;;;0.74;74.43;100982.47;6402255;27;20126;-74
2023/12/04 11:06:49;;;;;;;6.75;4.47;;;;;;;1.00;74.10;100980.59;6382850;27;20482;-74
2023/12/04 11:09:51;;;;;;;8.10;4.57;;;;;;;0.91;73.08;100970.41;6375064;27;20050;-74
2023/12/04 11:13:01;;;;;;;7.93;2.83;;;;;;;1.14;73.31;100984.81;6377337;27;20043;-74
2023/12/04 11:16:18;;;;;;;30.25;14.57;;;;;;;1.07;72.38;100983.13;6374949;27;20502;-74
2023/12/04 11:19:29;;;;;;;8.73;5.50;;;;;;;1.35;71.46;100987.22;6375667;27;20050;-73
2023/12/04 11:22:30;;;;;;;10.68;5.50;;;;;;;1.40;71.01;100967.47;6374931;27;20053;-74
2023/12/04 11:25:34;;;;;;;8.25;4.75;;;;;;;1.19;71.42;100986.50;6373425;27;20051;-76
2023/12/04 11:28:38;;;;;;;14.45;6.93;;;;;;;1.80;70.60;100972.22;6366353;27;20054;-76
2023/12/04 11:31:39;;;;;;;10.98;3.50;;;;;;;1.85;69.82;100974.75;6374500;27;20108;-74
2023/12/04 11:34:48;;;;;;;8.98;4.70;;;;;;;1.56;68.61;100967.31;6363736;27;20044;-74
2023/12/04 11:37:49;;;;;;;6.32;3.50;;;;;;;1.06;69.60;100960.88;6355297;27;20096;-74
2023/12/04 11:40:53;;;;;;;8.98;4.70;;;;;;;0.99;70.52;100967.78;6363881;27;20051;-76
2023/12/04 11:43:59;;;;;;;5.45;3.90;;;;;;;0.57;71.92;100975.72;6372245;27;20527;-76
2023/12/04 11:47:06;;;;;;;10.00;5.43;;;;;;;0.90;72.25;100960.13;6373938;27;20495;-76
2023/12/04 11:50:08;;;;;;;7.50;4.63;;;;;;;1.03;73.27;100964.34;6370834;27;20085;-76
2023/12/04 11:53:11;;;;;;;12.75;4.80;;;;;;;1.45;71.82;100951.97;6363380;27;20055;-74
2023/12/04 11:56:13;;;;;;;8.30;5.00;;;;;;;1.78;70.04;100948.22;6367623;27;20510;-74
2023/12/04 11:59:14;;;;;;;6.63;4.73;;;;;;;1.44;69.30;100941.69;6371454;27;20050;-74
2023/12/04 12:02:16;;;;;;;12.75;7.00;;;;;;;1.10;70.63;100940.28;6365875;27;20053;-74
2023/12/04 12:05:17;;;;;;;12.03;6.23;;;;;;;1.11;70.87;100938.56;6355884;27;20055;-74
2023/12/04 12:08:17;;;;;;;7.68;3.92;;;;;;;0.88;70.34;100939.56;6360930;27;20483;-74
2023/12/04 12:11:21;;;;;;;10.07;5.82;;;;;;;0.93;69.85;100939.56;6381003;27;20058;-74
2023/12/04 12:14:22;;;;;;;5.97;3.53;;;;;;;0.90;68.65;100935.28;6388235;27;20087;-76
2023/12/04 12:17:23;;;;;;;8.80;3.80;;;;;;;0.86;69.22;100938.72;6364722;27;20036;-74
2023/12/04 12:20:25;;;;;;;6.65;3.22;;;;;;;0.99;69.43;100942.09;6357075;27;20074;-76
2023/12/04 12:23:26;;;;;;;9.07;5.32;;;;;;;0.82;69.08;100934.47;6358420;27;20046;-76
2023/12/04 12:26:28;;;;;;;8.70;5.10;;;;;;;0.96;69.50;100942.09;6364813;27;20117;-74
2023/12/04 12:29:29;;;;;;;9.73;5.60;;;;;;;0.85;70.11;100934.47;6361107;27;20529;-76
2023/12/04 12:32:35;;;;;;;8.50;5.10;;;;;;;0.86;68.67;100931.03;6353273;27;20047;-74
2023/12/04 12:35:36;;;;;;;6.05;3.78;;;;;;;0.59;69.95;100924.34;6355148;27;20165;-73
2023/12/04 12:38:37;;;;;;;7.32;3.15;;;;;;;0.58;69.30;100915.81;6356141;27;20040;-74
2023/12/04 12:41:40;;;;;;;8.38;4.38;;;;;;;0.54;69.75;100920.97;6359413;27;20074;-74
2023/12/04 12:44:42;;;;;;;11.10;6.35;;;;;;;0.79;70.32;100919.09;6360068;27;20047;-74
2023/12/04 12:47:47;;;;;;;11.38;6.05;;;;;;;0.85;69.67;100918.22;6360043;27;20435;-76
2023/12/04 12:50:48;;;;;;;9.70;4.75;;;;;;;0.83;70.38;100917.38;6362618;27;20482;-74
2023/12/04 12:53:49;;;;;;;15.55;4.40;;;;;;;0.74;69.15;100906.28;6373677;27;20066;-75
2023/12/04 12:56:50;;;;;;;8.75;4.07;;;;;;;0.87;69.05;100904.47;6364890;27;20126;-76
2023/12/04 12:59:54;;;;;;;16.08;7.57;;;;;;;0.71;68.97;100897.75;6357563;27;20099;-74
2023/12/04 13:02:54;;;;;;;10.65;6.15;;;;;;;1.09;69.57;100896.59;6354789;27;20051;-74
2023/12/04 13:05:58;;;;;;;6.88;4.43;;;;;;;1.03;69.01;100899.22;6362890;27;20055;-74
2023/12/04 13:08:59;;;;;;;9.63;5.85;;;;;;;1.19;68.34;100886.22;6364226;27;20043;-76
2023/12/04 13:12:00;;;;;;;7.00;4.25;;;;;;;1.16;68.62;100888.81;6360793;27;20055;-74
2023/12/04 13:15:04;;;;;;;6.28;4.03;;;;;;;1.34;67.71;100890.38;6361724;27;20504;-76
2023/12/04 13:18:05;;;;;;;9.80;5.70;;;;;;;1.49;67.25;100899.66;6360579;27;20421;-76
2023/12/04 13:21:10;;;;;;;11.82;5.13;;;;;;;1.63;66.35;100902.09;6356984;27;20079;-74
2023/12/04 13:24:11;;;;;;;8.57;5.10;;;;;;;1.72;66.03;100895.97;6355907;27;20043;-76
2023/12/04 13:27:13;;;;;;;7.65;5.10;;;;;;;1.47;66.49;100897.97;6361289;27;20107;-76
2023/12/04 13:30:14;;;;;;;8.88;4.85;;;;;;;1.59;66.34;100893.53;6365394;27;20065;-77
2023/12/04 13:33:15;;;;;;;12.63;6.05;;;;;;;1.45;66.75;100892.81;6358279;27;20411;-76
2023/12/04 13:36:15;;;;;;;7.85;4.63;;;;;;;1.24;66.90;100885.34;6366118;27;20506;-74
2023/12/04 13:39:16;;;;;;;10.27;4.80;;;;;;;1.26;66.77;100878.47;6366971;27;20107;-76
2023/12/04 13:45:37;;;;;;;5.82;4.45;;;;;;;0.85;67.97;100887.38;6355780;27;20078;-74
2023/12/04 13:48:40;;;;;;;11.52;5.28;;;;;;;0.97;68.33;100871.84;6359374;27;20047;-74
2023/12/04 13:51:41;;;;;;;9.93;5.03;;;;;;;0.95;68.72;100878.72;6363812;27;20043;-76
2023/12/04 13:54:47;;;;;;;9.05;5.85;;;;;;;0.96;69.02;100873.56;6360079;27;20460;-74
2023/12/04 14:01:12;;;;;;;11.90;6.00;;;;;;;0.93;68.25;100871.03;6365854;27;20043;-77
2023/12/04 14:04:13;;;;;;;7.47;5.07;;;;;;;0.80;68.86;100864.25;6349835;28;20043;-77
2023/12/04 14:07:15;;;;;;;9.23;4.75;;;;;;;0.80;68.70;100867.72;6355637;27;20083;-76
2023/12/04 14:10:16;;;;;;;11.18;5.53;;;;;;;0.79;68.84;100867.72;6345740;28;20043;-74
2023/12/04 14:13:17;;;;;;;8.05;5.03;;;;;;;0.67;69.76;100865.25;6350234;27;20456;-77